NORTHERN NASSAU  -  Areal Flood Advisory Areal Flood Advisory     Flash Flood Watch Flash Flood Watch     Rip Current Statement Rip Current Statement        NORTHERN QUEENS  -  Areal Flood Advisory Areal Flood Advisory     Flash Flood Watch Flash Flood Watch     Rip Current Statement Rip Current Statement        SOUTHERN NASSAU  -  Areal Flood Advisory Areal Flood Advisory     Flash Flood Watch Flash Flood Watch     Rip Current Statement Rip Current Statement        SOUTHERN QUEENS  -  Areal Flood Advisory Areal Flood Advisory     Flash Flood Watch Flash Flood Watch     Rip Current Statement Rip Current Statement        NORTHEAST SUFFOLK  -  Rip Current Statement Rip Current Statement        NORTHWEST SUFFOLK  -  Rip Current Statement Rip Current Statement        SOUTHEAST SUFFOLK  -  Rip Current Statement Rip Current Statement        SOUTHWEST SUFFOLK  -  Rip Current Statement Rip Current Statement      

Active alerts

Northern Queens
  Details for Northern Queens Areal Flood Advisory  +2 additional alerts
Southern Queens
  Details for Southern Queens Areal Flood Advisory  +2 additional alerts
Northern Nassau
  Details for Northern Nassau Areal Flood Advisory  +2 additional alerts
Southern Nassau
  Details for Southern Nassau Areal Flood Advisory  +2 additional alerts
Northwest Suffolk
  Details for Northwest Suffolk Rip Current Statement
Southwest Suffolk
  Details for Southwest Suffolk Rip Current Statement
Northeast Suffolk
  Details for Northeast Suffolk Rip Current Statement
Southeast Suffolk
  Details for Southeast Suffolk Rip Current Statement


WXM80 ListenWXM80 Stop

You find our weather info also at:

UK Metoffice

WeatherCloud

Weather Underground

Northeastern Weather Network

AWEKAS

Citizen Weather Observer Program (CWOP)

HAMweather, WeatherForYou, PWS Weather


Weather Underground History page Text

Daily Summary for August 16, 2017 Units:  English    Metric   Both
« Previous Day
Next Day »
Daily Weekly Monthly Yearly Custom
  High: Low: Average:
Temperature: 90.1 °F 68.4 °F 77 °F
Dew Point: 73.0 °F 65.3 °F 68.4 °F
Humidity: 98 % 48 % 78 %
Wind Speed: 5.3 mph 0.0 mph 0.7 mph
Wind Gust: 7.0 mph - -
Wind:- - WSW
Pressure: 29.97 in 29.83 in -
Precipitation: 0.00 in    
Historical Graphs
 
 
Tabular Data for August 16, 2017
Time Temperature Dew Point Pressure Wind Wind Speed Wind Gust Humidity Rainfall Rate (Hourly)
00:00 69.9 °F 68.1 °F 29.84 in SE 0.4 mph 2.3 mph 94 % 0.00 in
00:05 69.9 °F 68.1 °F 29.85 in Calm   1.2 mph 94 % 0.00 in
00:10 69.8 °F 68.0 °F 29.85 in Calm     94 % 0.00 in
00:15 69.7 °F 67.9 °F 29.85 in Calm     94 % 0.00 in
00:20 69.6 °F 67.8 °F 29.84 in Calm     94 % 0.00 in
00:25 69.5 °F 67.7 °F 29.84 in Calm     94 % 0.00 in
00:30 69.4 °F 67.6 °F 29.84 in Calm     94 % 0.00 in
00:35 69.3 °F 67.5 °F 29.84 in Calm     94 % 0.00 in
00:40 69.2 °F 67.4 °F 29.84 in Calm     94 % 0.00 in
00:45 69.2 °F 67.4 °F 29.84 in Calm     94 % 0.00 in
00:50 69.1 °F 67.3 °F 29.84 in SE 0.1 mph 1.2 mph 94 % 0.00 in
00:55 69.1 °F 67.6 °F 29.84 in Calm     95 % 0.00 in
01:00 69.1 °F 67.6 °F 29.85 in Calm     95 % 0.00 in
01:05 69.1 °F 67.6 °F 29.84 in WSW 0.3 mph 1.2 mph 95 % 0.00 in
01:10 69.1 °F 67.6 °F 29.84 in Calm     95 % 0.00 in
01:15 69.2 °F 68.0 °F 29.84 in Calm     96 % 0.00 in
01:20 69.2 °F 68.0 °F 29.83 in Calm     96 % 0.00 in
01:25 69.1 °F 67.9 °F 29.83 in Calm     96 % 0.00 in
01:30 69.1 °F 67.9 °F 29.83 in Calm     96 % 0.00 in
01:35 69.1 °F 67.9 °F 29.84 in Calm   1.2 mph 96 % 0.00 in
01:40 69.1 °F 67.9 °F 29.84 in WSW 0.3 mph 2.3 mph 96 % 0.00 in
01:45 69.1 °F 67.9 °F 29.83 in Calm     96 % 0.00 in
01:50 69.1 °F 67.9 °F 29.83 in Calm   1.2 mph 96 % 0.00 in
01:56 69.1 °F 67.9 °F 29.83 in Calm   3.0 mph 96 % 0.00 in
02:01 69.1 °F 67.9 °F 29.84 in WSW 0.1 mph 3.5 mph 96 % 0.00 in
02:06 69.2 °F 68.0 °F 29.84 in WSW 1.3 mph 2.3 mph 96 % 0.00 in
02:11 69.2 °F 68.0 °F 29.84 in Calm   3.0 mph 96 % 0.00 in
02:16 69.2 °F 68.0 °F 29.84 in Calm     96 % 0.00 in
02:21 69.2 °F 68.0 °F 29.85 in Calm   1.0 mph 96 % 0.00 in
02:26 69.2 °F 68.0 °F 29.84 in Calm   1.0 mph 96 % 0.00 in
02:31 69.2 °F 68.0 °F 29.85 in Calm   1.0 mph 96 % 0.00 in
02:36 69.2 °F 68.0 °F 29.85 in Calm   1.0 mph 96 % 0.00 in
02:41 69.2 °F 68.0 °F 29.85 in Calm     96 % 0.00 in
02:46 69.2 °F 68.0 °F 29.85 in Calm   2.0 mph 96 % 0.00 in
02:51 69.1 °F 67.9 °F 29.85 in Calm   1.0 mph 96 % 0.00 in
02:56 69.1 °F 67.9 °F 29.85 in Calm   2.0 mph 96 % 0.00 in
03:01 69.1 °F 67.9 °F 29.85 in Calm   1.2 mph 96 % 0.00 in
03:06 69.1 °F 67.9 °F 29.85 in West 0.1 mph 3.0 mph 96 % 0.00 in
03:11 69.1 °F 67.9 °F 29.85 in Calm   1.2 mph 96 % 0.00 in
03:16 69.2 °F 68.3 °F 29.85 in Calm     97 % 0.00 in
03:21 69.2 °F 68.3 °F 29.85 in WSW 0.2 mph 1.2 mph 97 % 0.00 in
03:26 69.1 °F 68.2 °F 29.86 in Calm     97 % 0.00 in
03:31 69.1 °F 68.2 °F 29.86 in Calm     97 % 0.00 in
03:36 69.1 °F 68.2 °F 29.86 in Calm     97 % 0.00 in
03:41 69.1 °F 68.2 °F 29.85 in Calm     97 % 0.00 in
03:46 69.0 °F 67.8 °F 29.85 in Calm     96 % 0.00 in
03:51 69.0 °F 67.8 °F 29.85 in Calm     96 % 0.00 in
03:56 68.9 °F 67.7 °F 29.85 in Calm     96 % 0.00 in
04:01 68.9 °F 67.7 °F 29.85 in Calm     96 % 0.00 in
04:06 68.8 °F 67.6 °F 29.85 in Calm     96 % 0.00 in
04:11 68.8 °F 67.6 °F 29.84 in Calm     96 % 0.00 in
04:16 68.6 °F 67.4 °F 29.84 in Calm     96 % 0.00 in
04:21 68.6 °F 67.4 °F 29.85 in Calm     96 % 0.00 in
04:26 68.5 °F 67.3 °F 29.85 in Calm     96 % 0.00 in
04:31 68.5 °F 67.3 °F 29.85 in Calm     96 % 0.00 in
04:36 68.4 °F 67.2 °F 29.85 in Calm     96 % 0.00 in
04:41 68.4 °F 67.2 °F 29.86 in Calm     96 % 0.00 in
04:46 68.4 °F 67.2 °F 29.86 in Calm     96 % 0.00 in
04:51 68.4 °F 67.5 °F 29.86 in Calm     97 % 0.00 in
04:56 68.5 °F 67.6 °F 29.86 in Calm     97 % 0.00 in
05:02 68.5 °F 67.6 °F 29.86 in Calm   1.2 mph 97 % 0.00 in
05:07 68.6 °F 67.7 °F 29.86 in WSW 0.1 mph 1.2 mph 97 % 0.00 in
05:12 68.7 °F 67.8 °F 29.86 in Calm     97 % 0.00 in
05:17 68.8 °F 67.9 °F 29.87 in Calm     97 % 0.00 in
05:22 68.9 °F 68.0 °F 29.87 in Calm   1.2 mph 97 % 0.00 in
05:27 69.0 °F 68.1 °F 29.87 in WSW 0.1 mph 1.2 mph 97 % 0.00 in
05:32 69.2 °F 68.3 °F 29.87 in Calm     97 % 0.00 in
05:37 69.4 °F 68.5 °F 29.87 in Calm   1.0 mph 97 % 0.00 in
05:42 69.6 °F 68.7 °F 29.87 in WSW 0.2 mph 1.2 mph 97 % 0.00 in
05:47 69.7 °F 69.1 °F 29.88 in WSW 0.1 mph 1.2 mph 98 % 0.00 in
05:52 69.9 °F 69.3 °F 29.88 in WSW 0.4 mph 2.3 mph 98 % 0.00 in
05:57 69.9 °F 69.3 °F 29.88 in Calm     98 % 0.00 in
06:02 69.9 °F 69.0 °F 29.88 in WSW 0.2 mph 2.3 mph 97 % 0.00 in
06:07 69.9 °F 69.0 °F 29.88 in WNW 1.4 mph 4.0 mph 97 % 0.00 in
06:12 70.0 °F 69.1 °F 29.88 in WNW 1.9 mph 4.6 mph 97 % 0.00 in
06:17 70.0 °F 69.1 °F 29.88 in WNW 1.5 mph 2.0 mph 97 % 0.00 in
06:22 70.0 °F 69.1 °F 29.88 in WNW 1.0 mph 3.5 mph 97 % 0.00 in
06:27 70.0 °F 69.1 °F 29.89 in Calm   1.2 mph 97 % 0.00 in
06:32 69.9 °F 69.0 °F 29.89 in WNW 0.2 mph 3.5 mph 97 % 0.00 in
06:38 69.9 °F 69.0 °F 29.89 in WNW 1.0 mph 2.3 mph 97 % 0.00 in
06:43 69.9 °F 69.0 °F 29.89 in WNW 0.1 mph 3.5 mph 97 % 0.00 in
06:48 69.9 °F 69.0 °F 29.89 in Calm   1.0 mph 97 % 0.00 in
06:53 69.9 °F 69.0 °F 29.89 in SW 0.7 mph 2.3 mph 97 % 0.00 in
06:58 69.9 °F 69.0 °F 29.89 in Calm   1.0 mph 97 % 0.00 in
07:03 69.9 °F 69.0 °F 29.89 in WNW 0.1 mph 1.2 mph 97 % 0.00 in
07:08 70.0 °F 69.1 °F 29.89 in WNW 1.1 mph 3.5 mph 97 % 0.00 in
07:13 70.0 °F 69.1 °F 29.89 in Calm   1.2 mph 97 % 0.00 in
07:18 70.1 °F 69.2 °F 29.89 in WNW 1.2 mph 3.5 mph 97 % 0.00 in
07:23 70.2 °F 69.3 °F 29.89 in WNW 0.1 mph 2.3 mph 97 % 0.00 in
07:28 70.3 °F 69.4 °F 29.89 in NW 2.4 mph 3.5 mph 97 % 0.00 in
07:33 70.5 °F 69.9 °F 29.90 in Calm   3.5 mph 98 % 0.00 in
07:38 70.6 °F 70.0 °F 29.89 in NW 0.1 mph 3.5 mph 98 % 0.00 in
07:44 70.7 °F 70.1 °F 29.89 in NW 1.6 mph 3.5 mph 98 % 0.00 in
07:49 70.7 °F 70.1 °F 29.89 in NW 0.5 mph 3.5 mph 98 % 0.00 in
07:54 70.8 °F 70.2 °F 29.89 in WNW 0.2 mph 2.3 mph 98 % 0.00 in
07:59 70.9 °F 70.0 °F 29.89 in NW 0.1 mph 1.2 mph 97 % 0.00 in
08:04 70.9 °F 70.0 °F 29.90 in NW 1.4 mph 3.5 mph 97 % 0.00 in
08:09 70.9 °F 70.0 °F 29.90 in NW 0.1 mph 1.0 mph 97 % 0.00 in
08:14 70.8 °F 69.9 °F 29.90 in WNW 1.2 mph 3.5 mph 97 % 0.00 in
08:19 70.8 °F 69.9 °F 29.90 in Calm   2.3 mph 97 % 0.00 in
08:24 70.8 °F 69.9 °F 29.90 in WNW 2.2 mph 3.5 mph 97 % 0.00 in
08:29 70.7 °F 69.8 °F 29.90 in NNE 0.9 mph 3.0 mph 97 % 0.00 in
08:34 70.8 °F 69.9 °F 29.90 in NW 1.5 mph 3.5 mph 97 % 0.00 in
08:39 70.7 °F 69.8 °F 29.90 in North 1.7 mph 3.5 mph 97 % 0.00 in
08:44 70.7 °F 69.8 °F 29.90 in NW 0.5 mph 3.5 mph 97 % 0.00 in
08:49 70.8 °F 69.9 °F 29.90 in NNW 2.2 mph 3.5 mph 97 % 0.00 in
08:54 70.8 °F 69.9 °F 29.90 in NNW 0.6 mph 2.3 mph 97 % 0.00 in
09:00 70.9 °F 70.0 °F 29.90 in NNW 1.4 mph 3.5 mph 97 % 0.00 in
09:05 71.0 °F 70.1 °F 29.90 in Calm   3.5 mph 97 % 0.00 in
09:10 71.2 °F 70.3 °F 29.90 in Calm   1.2 mph 97 % 0.00 in
09:15 71.2 °F 70.0 °F 29.90 in West 0.4 mph 1.2 mph 96 % 0.00 in
09:20 71.3 °F 70.1 °F 29.90 in North 0.7 mph 3.5 mph 96 % 0.00 in
09:25 71.4 °F 69.9 °F 29.90 in Calm   2.3 mph 95 % 0.00 in
09:30 71.4 °F 69.6 °F 29.90 in North 2.4 mph 4.6 mph 94 % 0.00 in
09:35 71.6 °F 69.8 °F 29.90 in WNW 2.1 mph 3.5 mph 94 % 0.00 in
09:40 71.8 °F 69.7 °F 29.90 in WNW 1.1 mph 3.5 mph 93 % 0.00 in
09:45 72.1 °F 70.0 °F 29.90 in NW 0.3 mph 3.0 mph 93 % 0.00 in
09:50 72.4 °F 69.9 °F 29.90 in NW 2.0 mph 4.0 mph 92 % 0.00 in
09:55 73.0 °F 70.5 °F 29.90 in NNW 0.4 mph 2.3 mph 92 % 0.00 in
10:00 73.9 °F 71.1 °F 29.90 in NW 0.5 mph 1.2 mph 91 % 0.00 in
10:05 74.8 °F 71.7 °F 29.90 in West 0.3 mph 3.5 mph 90 % 0.00 in
10:10 75.5 °F 71.7 °F 29.90 in WSW 0.9 mph 3.5 mph 88 % 0.00 in
10:15 76.1 °F 71.6 °F 29.90 in North 0.1 mph 1.2 mph 86 % 0.00 in
10:20 76.9 °F 71.0 °F 29.90 in WNW 1.8 mph 3.5 mph 82 % 0.00 in
10:25 77.5 °F 70.8 °F 29.90 in WNW 0.5 mph 3.5 mph 80 % 0.00 in
10:30 78.2 °F 71.5 °F 29.90 in WNW 0.6 mph 3.5 mph 80 % 0.00 in
10:35 78.8 °F 71.0 °F 29.91 in North 2.3 mph 3.5 mph 77 % 0.00 in
10:40 79.3 °F 70.3 °F 29.91 in WSW 0.8 mph 3.0 mph 74 % 0.00 in
10:45 79.8 °F 70.4 °F 29.90 in SW 1.0 mph 3.5 mph 73 % 0.00 in
10:50 80.1 °F 70.7 °F 29.90 in SW 1.0 mph 5.8 mph 73 % 0.00 in
10:55 80.7 °F 72.0 °F 29.90 in WSW 2.2 mph 3.5 mph 75 % 0.00 in
11:00 81.3 °F 72.6 °F 29.91 in WNW 1.2 mph 2.3 mph 75 % 0.00 in
11:06 81.9 °F 72.0 °F 29.90 in NW 1.0 mph 4.0 mph 72 % 0.00 in
11:11 82.5 °F 73.0 °F 29.91 in NW 1.0 mph 3.0 mph 73 % 0.00 in
11:16 83.2 °F 72.4 °F 29.91 in NNW 1.0 mph 6.0 mph 70 % 0.00 in
11:21 83.9 °F 72.2 °F 29.91 in North 2.0 mph 6.0 mph 68 % 0.00 in
11:26 84.5 °F 71.9 °F 29.91 in NW 3.0 mph 7.0 mph 66 % 0.00 in
11:31 84.9 °F 71.9 °F 29.91 in WNW 2.0 mph 3.0 mph 65 % 0.00 in
11:36 85.4 °F 71.8 °F 29.90 in NW 1.0 mph 4.0 mph 64 % 0.00 in
11:41 85.9 °F 71.4 °F 29.90 in NE 1.4 mph 4.6 mph 62 % 0.00 in
11:46 86.3 °F 72.2 °F 29.90 in North 2.5 mph 3.5 mph 63 % 0.00 in
11:51 86.5 °F 71.9 °F 29.90 in WNW 2.9 mph 4.6 mph 62 % 0.00 in
11:56 86.8 °F 72.7 °F 29.90 in WNW 1.3 mph 4.6 mph 63 % 0.00 in
12:01 87.2 °F 72.1 °F 29.90 in NNW 0.7 mph 2.3 mph 61 % 0.00 in
12:06 87.5 °F 71.4 °F 29.90 in NW 2.0 mph 4.0 mph 59 % 0.00 in
12:07 87.6 °F 72.5 °F 29.90 in NW 1.6 mph 3.5 mph 61 % 0.00 in
12:12 88.0 °F 71.9 °F 29.90 in WNW 2.7 mph 4.6 mph 59 % 0.00 in
12:17 88.2 °F 70.5 °F 29.90 in NNE 2.9 mph 4.6 mph 56 % 0.00 in
12:22 88.3 °F 71.1 °F 29.90 in WNW 2.4 mph 5.8 mph 57 % 0.00 in
12:27 88.5 °F 70.8 °F 29.90 in WNW 1.0 mph 3.0 mph 56 % 0.00 in
12:32 88.7 °F 72.0 °F 29.90 in West 2.0 mph 3.0 mph 58 % 0.00 in
12:37 89.0 °F 71.3 °F 29.91 in NNE 0.8 mph 3.5 mph 56 % 0.00 in
12:42 89.3 °F 70.5 °F 29.90 in NW 2.0 mph 4.6 mph 54 % 0.00 in
12:47 89.5 °F 72.3 °F 29.90 in West 2.4 mph 4.0 mph 57 % 0.00 in
12:52 89.7 °F 70.3 °F 29.90 in WNW 0.7 mph 4.6 mph 53 % 0.00 in
12:57 89.8 °F 70.9 °F 29.90 in North 1.2 mph 4.6 mph 54 % 0.00 in
13:02 89.8 °F 69.8 °F 29.90 in NW 4.8 mph 7.0 mph 52 % 0.00 in
13:07 89.9 °F 71.0 °F 29.90 in WNW 2.0 mph 3.5 mph 54 % 0.00 in
13:12 89.9 °F 69.9 °F 29.90 in North 1.9 mph 3.5 mph 52 % 0.00 in
13:17 90.0 °F 71.7 °F 29.90 in West 2.6 mph 6.0 mph 55 % 0.00 in
13:22 90.1 °F 70.7 °F 29.90 in NW 1.6 mph 4.6 mph 53 % 0.00 in
13:27 90.0 °F 70.0 °F 29.90 in NE 5.3 mph 7.0 mph 52 % 0.00 in
13:32 89.6 °F 70.8 °F 29.90 in NW 1.8 mph 5.8 mph 54 % 0.00 in
13:37 89.5 °F 69.0 °F 29.90 in NNW 3.3 mph 5.8 mph 51 % 0.00 in
13:42 89.5 °F 70.1 °F 29.89 in NNE 1.9 mph 5.0 mph 53 % 0.00 in
13:47 89.4 °F 70.0 °F 29.89 in NW 1.7 mph 4.6 mph 53 % 0.00 in
13:52 89.5 °F 69.0 °F 29.89 in North 3.4 mph 4.6 mph 51 % 0.00 in
13:58 89.4 °F 70.0 °F 29.89 in North 2.2 mph 4.6 mph 53 % 0.00 in
14:03 89.0 °F 68.5 °F 29.89 in North 1.9 mph 3.5 mph 51 % 0.00 in
14:08 88.6 °F 68.7 °F 29.89 in NE 1.4 mph 4.6 mph 52 % 0.00 in
14:13 88.6 °F 68.2 °F 29.89 in North 3.5 mph 5.0 mph 51 % 0.00 in
14:18 88.7 °F 68.8 °F 29.89 in ENE 2.0 mph 5.8 mph 52 % 0.00 in
14:19 88.5 °F 67.5 °F 29.89 in North 1.4 mph 3.5 mph 50 % 0.00 in
14:24 88.4 °F 68.0 °F 29.90 in North 2.1 mph 4.0 mph 51 % 0.00 in
14:29 88.6 °F 69.8 °F 29.90 in North 1.1 mph 4.0 mph 54 % 0.00 in
14:34 88.6 °F 69.3 °F 29.89 in NNE 0.9 mph 3.5 mph 53 % 0.00 in
14:39 88.6 °F 69.3 °F 29.90 in NW 1.7 mph 3.5 mph 53 % 0.00 in
14:45 88.7 °F 69.4 °F 29.90 in NNE 2.6 mph 3.5 mph 53 % 0.00 in
14:50 88.7 °F 67.1 °F 29.90 in NE 1.5 mph 3.5 mph 49 % 0.00 in
14:55 88.7 °F 68.2 °F 29.90 in WNW 2.7 mph 5.8 mph 51 % 0.00 in
15:00 88.6 °F 67.6 °F 29.90 in NNW 1.5 mph 2.3 mph 50 % 0.00 in
15:05 88.2 °F 68.4 °F 29.90 in North 1.1 mph 2.3 mph 52 % 0.00 in
15:10 88.3 °F 69.0 °F 29.90 in NNE 2.8 mph 3.5 mph 53 % 0.00 in
15:15 88.4 °F 68.0 °F 29.90 in NNW 2.2 mph 4.6 mph 51 % 0.00 in
15:20 88.4 °F 68.5 °F 29.90 in NNW 2.4 mph 3.5 mph 52 % 0.00 in
15:25 88.5 °F 69.7 °F 29.90 in NW 1.5 mph 3.5 mph 54 % 0.00 in
15:30 88.5 °F 68.1 °F 29.90 in North 0.7 mph 4.0 mph 51 % 0.00 in
15:35 88.3 °F 68.4 °F 29.90 in NNE 2.9 mph 4.6 mph 52 % 0.00 in
15:40 88.0 °F 67.0 °F 29.90 in North 2.3 mph 3.5 mph 50 % 0.00 in
15:45 88.0 °F 67.0 °F 29.90 in WNW 1.8 mph 3.5 mph 50 % 0.00 in
15:50 88.1 °F 67.1 °F 29.90 in North 2.0 mph 4.0 mph 50 % 0.00 in
15:55 88.3 °F 67.3 °F 29.90 in North 0.5 mph 3.5 mph 50 % 0.00 in
16:00 88.4 °F 67.4 °F 29.90 in North 2.8 mph 4.6 mph 50 % 0.00 in
16:05 88.3 °F 66.7 °F 29.90 in NNW 0.6 mph 2.3 mph 49 % 0.00 in
16:10 88.4 °F 66.2 °F 29.90 in NNE 2.4 mph 3.5 mph 48 % 0.00 in
16:15 88.4 °F 66.8 °F 29.90 in NNE 2.5 mph 3.0 mph 49 % 0.00 in
16:20 88.1 °F 66.5 °F 29.90 in North 3.6 mph 4.6 mph 49 % 0.00 in
16:25 88.1 °F 66.5 °F 29.90 in North 1.6 mph 3.5 mph 49 % 0.00 in
16:31 88.1 °F 66.5 °F 29.90 in NW 1.4 mph 2.3 mph 49 % 0.00 in
16:36 88.0 °F 66.4 °F 29.90 in NW 1.0 mph 3.0 mph 49 % 0.00 in
16:41 87.7 °F 67.3 °F 29.90 in NNW 1.0 mph 4.0 mph 51 % 0.00 in
16:46 87.4 °F 66.5 °F 29.90 in NNE 2.0 mph 5.0 mph 50 % 0.00 in
16:51 87.0 °F 65.5 °F 29.90 in Calm   4.0 mph 49 % 0.00 in
16:56 87.1 °F 66.8 °F 29.90 in Calm   3.0 mph 51 % 0.00 in
17:01 87.1 °F 66.8 °F 29.90 in NNW 0.5 mph 2.3 mph 51 % 0.00 in
17:06 87.1 °F 65.6 °F 29.90 in Calm   1.0 mph 49 % 0.00 in
17:11 86.9 °F 66.0 °F 29.90 in North 1.9 mph 3.5 mph 50 % 0.00 in
17:16 86.7 °F 66.4 °F 29.90 in North 0.2 mph 2.3 mph 51 % 0.00 in
17:21 86.6 °F 66.9 °F 29.89 in North 0.8 mph 3.5 mph 52 % 0.00 in
17:26 86.6 °F 66.3 °F 29.89 in North 0.9 mph 2.3 mph 51 % 0.00 in
17:31 86.3 °F 66.6 °F 29.90 in North 0.6 mph 2.3 mph 52 % 0.00 in
17:36 86.0 °F 66.3 °F 29.90 in Calm     52 % 0.00 in
17:41 85.7 °F 66.0 °F 29.90 in Calm   1.2 mph 52 % 0.00 in
17:46 85.5 °F 66.4 °F 29.90 in Calm     53 % 0.00 in
17:51 85.2 °F 66.1 °F 29.90 in North 0.1 mph 1.0 mph 53 % 0.00 in
17:56 84.9 °F 65.3 °F 29.90 in Calm     52 % 0.00 in
18:01 84.7 °F 66.2 °F 29.90 in Calm     54 % 0.00 in
18:07 84.4 °F 66.5 °F 29.90 in Calm     55 % 0.00 in
18:12 84.2 °F 65.8 °F 29.90 in Calm     54 % 0.00 in
18:17 84.0 °F 65.6 °F 29.90 in Calm   1.2 mph 54 % 0.00 in
18:22 83.9 °F 67.0 °F 29.90 in Calm     57 % 0.00 in
18:27 83.7 °F 66.3 °F 29.90 in Calm     56 % 0.00 in
18:32 83.6 °F 66.8 °F 29.90 in Calm     57 % 0.00 in
18:37 83.4 °F 66.1 °F 29.91 in Calm     56 % 0.00 in
18:42 83.3 °F 66.5 °F 29.90 in Calm     57 % 0.00 in
18:47 83.1 °F 66.8 °F 29.91 in Calm     58 % 0.00 in
18:52 82.9 °F 66.1 °F 29.91 in Calm     57 % 0.00 in
18:57 82.7 °F 67.4 °F 29.91 in Calm     60 % 0.00 in
19:02 82.5 °F 66.7 °F 29.91 in Calm     59 % 0.00 in
19:07 82.3 °F 67.0 °F 29.91 in Calm   1.2 mph 60 % 0.00 in
19:12 82.0 °F 66.7 °F 29.91 in Calm     60 % 0.00 in
19:17 81.8 °F 67.0 °F 29.91 in Calm     61 % 0.00 in
19:22 81.5 °F 67.7 °F 29.91 in Calm     63 % 0.00 in
19:27 81.3 °F 68.4 °F 29.91 in Calm     65 % 0.00 in
19:32 80.9 °F 68.9 °F 29.91 in Calm     67 % 0.00 in
19:37 80.5 °F 68.5 °F 29.91 in Calm     67 % 0.00 in
19:43 80.1 °F 68.6 °F 29.92 in Calm     68 % 0.00 in
19:48 79.8 °F 69.1 °F 29.92 in Calm     70 % 0.00 in
19:53 79.4 °F 69.2 °F 29.92 in Calm   1.2 mph 71 % 0.00 in
19:58 78.8 °F 68.6 °F 29.92 in Calm     71 % 0.00 in
20:03 78.3 °F 68.5 °F 29.92 in Calm     72 % 0.00 in
20:08 77.9 °F 68.1 °F 29.92 in Calm     72 % 0.00 in
20:13 77.6 °F 67.9 °F 29.92 in Calm     72 % 0.00 in
20:18 77.2 °F 67.9 °F 29.93 in North 0.1 mph 1.2 mph 73 % 0.00 in
20:23 76.8 °F 67.5 °F 29.93 in Calm     73 % 0.00 in
20:28 76.5 °F 67.6 °F 29.93 in Calm     74 % 0.00 in
20:33 76.1 °F 67.2 °F 29.92 in Calm     74 % 0.00 in
20:35 76.0 °F 67.1 °F 29.92 in Calm     74 % 0.00 in
20:40 75.7 °F 66.8 °F 29.93 in Calm   1.2 mph 74 % 0.00 in
20:45 75.5 °F 66.6 °F 29.93 in Calm     74 % 0.00 in
20:50 75.3 °F 66.8 °F 29.93 in Calm     75 % 0.00 in
20:55 75.1 °F 66.6 °F 29.93 in Calm     75 % 0.00 in
21:01 74.8 °F 66.7 °F 29.93 in Calm     76 % 0.00 in
21:06 74.6 °F 67.3 °F 29.93 in Calm     78 % 0.00 in
21:11 74.3 °F 67.0 °F 29.93 in Calm     78 % 0.00 in
21:16 74.1 °F 67.2 °F 29.94 in Calm     79 % 0.00 in
21:21 73.9 °F 67.0 °F 29.94 in Calm     79 % 0.00 in
21:26 73.7 °F 67.1 °F 29.94 in Calm     80 % 0.00 in
21:31 73.4 °F 66.5 °F 29.94 in Calm     79 % 0.00 in
21:36 73.2 °F 66.7 °F 29.94 in Calm     80 % 0.00 in
21:41 73.1 °F 66.9 °F 29.94 in Calm     81 % 0.00 in
21:46 72.9 °F 66.7 °F 29.94 in Calm     81 % 0.00 in
21:51 72.7 °F 66.5 °F 29.94 in Calm     81 % 0.00 in
21:56 72.6 °F 66.4 °F 29.94 in Calm     81 % 0.00 in
22:01 72.4 °F 66.6 °F 29.94 in Calm     82 % 0.00 in
22:06 72.3 °F 66.5 °F 29.94 in Calm     82 % 0.00 in
22:11 72.1 °F 66.3 °F 29.94 in Calm     82 % 0.00 in
22:16 72.0 °F 66.2 °F 29.94 in Calm     82 % 0.00 in
22:22 71.9 °F 66.1 °F 29.95 in Calm     82 % 0.00 in
22:27 71.7 °F 65.6 °F 29.95 in Calm     81 % 0.00 in
22:32 71.6 °F 65.5 °F 29.95 in Calm     81 % 0.00 in
22:37 71.5 °F 65.7 °F 29.95 in Calm     82 % 0.00 in
22:42 71.4 °F 65.6 °F 29.95 in North 0.2 mph 1.2 mph 82 % 0.00 in
22:47 71.3 °F 65.5 °F 29.95 in North 0.2 mph 1.2 mph 82 % 0.00 in
22:52 71.2 °F 65.8 °F 29.95 in Calm     83 % 0.00 in
22:57 71.1 °F 65.7 °F 29.95 in Calm     83 % 0.00 in
23:02 71.0 °F 65.6 °F 29.95 in Calm     83 % 0.00 in
23:07 71.0 °F 65.6 °F 29.95 in Calm     83 % 0.00 in
23:12 70.9 °F 65.8 °F 29.95 in Calm     84 % 0.00 in
23:17 70.9 °F 66.2 °F 29.95 in Calm     85 % 0.00 in
23:22 70.8 °F 66.1 °F 29.95 in Calm     85 % 0.00 in
23:27 70.8 °F 66.1 °F 29.95 in Calm     85 % 0.00 in
23:32 70.8 °F 66.1 °F 29.96 in Calm     85 % 0.00 in
23:34 70.7 °F 66.0 °F 29.96 in Calm     85 % 0.00 in
23:39 70.7 °F 66.3 °F 29.96 in Calm     86 % 0.00 in
23:44 70.6 °F 66.2 °F 29.96 in Calm     86 % 0.00 in
23:49 70.6 °F 66.2 °F 29.97 in Calm     86 % 0.00 in
23:54 70.6 °F 66.2 °F 29.97 in Calm     86 % 0.00 in
23:59 70.5 °F 66.4 °F 29.97 in Calm   1.2 mph 87 % 0.00 in
Crab Meadow Weather
Compliments of Weather Underground - 3 mb

Script developed by  Jim McMurry - jmcmurry@mwt.net Adapted for the template by  Wim van der Kuil - Leuven-Template.eu

Clouds: Mostly Cloudy or Considerable Cloudiness indicate about 75 percent cloud coverage.